Flight Track Log - Related Links

Times and Time Zones

All times are in EDT time to prevent confusion due to time zone crossing. See the JIA2237 flight status page for this flight to view local times or setup timezone preferences in your user account.

Time Position Orientation Groundspeed Altitude Reporting Facility
EDT Latitude Longitude Course Direction KTS MPH feet Rate Location/Type
Wed 08:05:42 PM 34.2397 -77.9886 268° West 196 226 4,200  Level Washington Center
Wed 08:06:42 PM 34.2400 -78.0714 270° West 225 259 7,000 3,150 Climbing Washington Center
Wed 08:07:00 PM 34.2500 -78.3266 270° West  Level FlightAware Approximate
Wed 08:07:42 PM 34.2403 -78.1594 270° West 248 285 10,500  Level Washington Center
Wed 08:08:00 PM 34.2500 -78.4337 270° West  Level FlightAware Approximate
Wed 08:08:03 PM 34.2411 -78.1931 272° West 257 296 11,400  Level Jacksonville Center
Wed 08:09:00 PM 34.2500 -78.5408 270° West  Level FlightAware Approximate
Wed 08:09:03 PM 34.2406 -78.2911 270° West 265 305 13,600  Level Jacksonville Center
Wed 08:10:00 PM 34.2487 -78.6404 268° West  Level FlightAware Approximate
Wed 08:10:02 PM 34.2403 -78.3989 270° West 301 346 16,300  Level Jacksonville Center
Wed 08:11:00 PM 34.2455 -78.7400 268° West  Level FlightAware Approximate
Wed 08:11:03 PM 34.2378 -78.5047 268° West 316 364 19,000  Level Jacksonville Center
Wed 08:12:03 PM 34.2375 -78.6153 270° West 329 379 21,200 1,500 Climbing Jacksonville Center
Wed 08:13:03 PM 34.2372 -78.7308 270° West 335 386 22,000 400 Climbing Jacksonville Center
Wed 08:14:03 PM 34.2392 -78.8561 271° West 355 409 22,000  Level Jacksonville Center
Wed 08:15:03 PM 34.2389 -78.9817 270° West 368 423 22,000  Level Jacksonville Center
Wed 08:16:03 PM 34.2386 -79.1075 270° West 373 429 22,000  Level Jacksonville Center
Wed 08:17:02 PM 34.2342 -79.2381 268° West 383 441 22,000  Level Jacksonville Center
Wed 08:18:03 PM 34.2336 -79.3664 270° West 383 441 22,000  Level Jacksonville Center
Wed 08:19:02 PM 34.2456 -79.4989 276° West 369 425 22,000  Level Jacksonville Center
Wed 08:20:03 PM 34.2942 -79.6000 300° West 340 391 22,000  Level Jacksonville Center
Wed 08:21:02 PM 34.3533 -79.7058 304° West 361 415 22,000 -100 Level Jacksonville Center
Wed 08:22:03 PM 34.4100 -79.8044 305° West 367 422 21,800 -1,140 Descending Jacksonville Center
Wed 08:23:03 PM 34.4686 -79.9056 305° West 373 429 19,700 -2,050 Descending Jacksonville Center
Wed 08:24:03 PM 34.5189 -80.0022 302° West 366 421 17,700 -1,964 Descending Jacksonville Center
Wed 08:25:51 PM 34.6078 -80.1725 302° West 320 368 14,200 -1,914 Descending Atlanta Center
Wed 08:26:46 PM 34.6519 -80.2511 304° West 313 360 12,500 -1,552 Descending Atlanta Center
Wed 08:27:47 PM 34.6983 -80.3350 304° West 296 341 11,200 -738 Descending Atlanta Center
Wed 08:28:48 PM 34.7506 -80.4036 313° West 272 313 11,000 -50 Descending Atlanta Center
Wed 08:29:48 PM 34.8092 -80.4769 314° West 277 319 11,100 50 Climbing Atlanta Center
Wed 08:30:49 PM 34.8611 -80.5431 314° West 279 321 11,100  Level Atlanta Center
Wed 08:31:50 PM 34.9172 -80.6117 315° West 278 320 11,100 -49 Level Atlanta Center
Wed 08:32:51 PM 34.9711 -80.6778 315° West 279 321 11,000 -569 Descending Atlanta Center
Wed 08:33:46 PM 35.0208 -80.7392 315° West 275 316 10,000 -891 Descending Atlanta Center
Wed 08:34:59 PM 35.0853 -80.8128 317° Northwest 260 299 9,100 -422 Descending Atlanta Center
Wed 08:35:54 PM 35.1461 -80.8206 354° North 228 262 9,100 -730 Level Atlanta Center
Wed 08:36:54 PM 35.2083 -80.8028 13° North 239 275 7,700 -1,559 Descending Atlanta Center
Wed 08:38:01 PM 35.2586 -80.7347 48° Northeast 241 277 5,800 -1,688 Descending Atlanta Center
Wed 08:39:02 PM 35.3094 -80.7658 333° Northwest 205 236 4,100 -1,328 Descending Atlanta Center
Wed 08:40:03 PM 35.3067 -80.8142 266° West 175 201 3,100 -828 Descending Atlanta Center
Wed 08:40:58 PM 35.2825 -80.8508 231° Southwest 140 161 2,500 -590 Descending Atlanta Center
Wed 08:42:05 PM 35.2564 -80.8875 229° Southwest 117 135 1,900 -590 Descending Atlanta Center
Wed 08:43:00 PM 35.2361 -80.9161 229° Southwest 125 144 1,300 -655 Descending Atlanta Center

Login

Don't have an account? Register now (free) for customized features, flight alerts, and more!